Time;durP1;ratioP1;P1;durP2;ratioP2;P2;SDS_P1;SDS_P2;PMS_P1;PMS_P2;Temp;Humidity;BMP_temperature;BMP_pressure;BME280_temperature;BME280_humidity;BME280_pressure;Samples;Min_cycle;Max_cycle;Signal;HPM_P1;HPM_P2
2021/10/27 00:00:19;;;;;;;2.07;1.20;;;15.50;99.90;;;;;;5031728;28;20582;-75
2021/10/27 00:02:45;;;;;;;2.40;1.10;;;15.50;99.90;;;;;;5031288;28;20193;-75
2021/10/27 00:05:13;;;;;;;2.17;1.00;;;15.50;99.90;;;;;;5030972;28;20580;-75
2021/10/27 00:07:39;;;;;;;2.20;1.07;;;15.60;99.90;;;;;;5031039;28;20573;-75
2021/10/27 00:10:05;;;;;;;1.70;1.10;;;15.60;99.90;;;;;;5030153;28;20858;-76
2021/10/27 00:12:30;;;;;;;1.67;1.00;;;15.60;99.90;;;;;;5030959;28;20558;-74
2021/10/27 00:14:59;;;;;;;1.60;1.27;;;15.60;99.90;;;;;;5030292;28;20580;-75
2021/10/27 00:17:25;;;;;;;1.50;0.90;;;15.60;99.90;;;;;;5047365;28;20956;-76
2021/10/27 00:19:51;;;;;;;3.20;1.27;;;15.60;99.90;;;;;;5031430;28;20682;-76
2021/10/27 00:22:16;;;;;;;2.00;1.10;;;15.70;99.90;;;;;;5031321;28;20181;-76
2021/10/27 00:24:42;;;;;;;1.93;1.00;;;15.60;99.90;;;;;;5031118;28;20575;-76
2021/10/27 00:27:09;;;;;;;1.70;0.90;;;15.70;99.90;;;;;;5031156;28;20170;-76
2021/10/27 00:29:36;;;;;;;1.80;0.97;;;15.60;99.90;;;;;;5031005;28;20208;-76
2021/10/27 00:32:02;;;;;;;1.53;0.70;;;15.60;99.90;;;;;;5030030;28;20596;-76
2021/10/27 00:34:28;;;;;;;2.37;1.27;;;15.70;99.90;;;;;;5030976;28;20620;-76
2021/10/27 00:36:53;;;;;;;1.40;0.90;;;15.60;99.90;;;;;;5031102;28;20700;-76
2021/10/27 00:39:20;;;;;;;2.30;1.00;;;15.60;99.90;;;;;;5032788;28;20560;-76
2021/10/27 00:41:45;;;;;;;3.93;0.90;;;15.60;99.90;;;;;;5035522;28;20194;-76
2021/10/27 00:44:19;;;;;;;1.30;0.90;;;15.60;99.90;;;;;;5050673;28;20588;-75
2021/10/27 00:46:45;;;;;;;1.80;0.90;;;15.70;99.90;;;;;;5034504;28;20178;-75
2021/10/27 00:49:11;;;;;;;4.40;1.23;;;15.70;99.90;;;;;;5051148;28;20557;-75
2021/10/27 00:51:36;;;;;;;3.10;1.10;;;15.60;99.90;;;;;;5034781;28;20177;-75
2021/10/27 00:54:03;;;;;;;2.37;1.17;;;15.60;99.90;;;;;;5049694;28;20612;-76
2021/10/27 00:56:30;;;;;;;1.63;1.00;;;15.50;99.90;;;;;;5055227;28;20249;-76
2021/10/27 00:58:56;;;;;;;2.37;1.00;;;15.50;99.90;;;;;;5051037;28;20687;-75
2021/10/27 01:01:21;;;;;;;1.67;0.80;;;15.40;99.90;;;;;;5034912;28;20572;-76
2021/10/27 01:03:47;;;;;;;1.80;0.73;;;15.40;99.90;;;;;;5034165;28;20619;-76
2021/10/27 01:06:13;;;;;;;1.77;0.90;;;15.40;99.90;;;;;;5032560;28;20247;-76
2021/10/27 01:08:39;;;;;;;1.30;0.70;;;15.30;99.90;;;;;;5034060;28;20174;-76
2021/10/27 01:11:05;;;;;;;1.77;0.90;;;15.30;99.90;;;;;;5033922;28;20173;-75
2021/10/27 01:13:31;;;;;;;1.30;0.80;;;15.30;99.90;;;;;;5033862;28;20205;-75
2021/10/27 01:15:56;;;;;;;1.57;0.70;;;15.30;99.90;;;;;;5033571;28;21255;-75
2021/10/27 01:18:23;;;;;;;1.20;0.60;;;15.30;99.90;;;;;;5032980;28;20652;-75
2021/10/27 01:20:49;;;;;;;1.40;0.70;;;15.30;99.90;;;;;;5033972;28;20176;-75
2021/10/27 01:23:15;;;;;;;1.23;0.67;;;15.40;99.90;;;;;;5033630;28;21027;-75
2021/10/27 01:25:40;;;;;;;1.10;0.57;;;15.40;99.90;;;;;;5033266;28;20170;-76
2021/10/27 01:28:06;;;;;;;1.40;0.73;;;15.40;99.90;;;;;;5033590;28;21231;-76
2021/10/27 01:30:32;;;;;;;1.27;0.70;;;15.40;99.90;;;;;;5032059;28;20201;-76
2021/10/27 01:32:58;;;;;;;1.30;0.60;;;15.40;99.90;;;;;;5032867;28;20640;-76
2021/10/27 01:35:25;;;;;;;1.30;0.50;;;15.50;99.90;;;;;;5024460;28;20927;-76
2021/10/27 01:37:51;;;;;;;1.50;0.60;;;15.50;99.90;;;;;;5032813;28;20166;-76
2021/10/27 01:40:19;;;;;;;1.50;0.80;;;15.50;99.90;;;;;;5025195;28;20182;-76
2021/10/27 01:42:46;;;;;;;1.10;0.60;;;15.50;99.90;;;;;;5032385;28;20612;-76
2021/10/27 01:45:13;;;;;;;1.80;0.70;;;15.50;99.90;;;;;;5024559;28;20945;-76
2021/10/27 01:47:43;;;;;;;1.30;0.60;;;15.40;99.90;;;;;;5047212;28;20588;-75
2021/10/27 01:50:10;;;;;;;1.60;0.63;;;15.50;99.90;;;;;;5031594;28;20639;-75
2021/10/27 01:52:37;;;;;;;1.30;0.60;;;15.40;99.90;;;;;;5031242;28;20608;-76
2021/10/27 01:55:04;;;;;;;1.33;0.70;;;15.40;99.90;;;;;;5032918;28;20936;-74
2021/10/27 01:57:30;;;;;;;1.00;0.50;;;15.40;99.90;;;;;;5032903;28;20613;-75
2021/10/27 01:59:55;;;;;;;1.10;0.50;;;15.40;99.90;;;;;;5032941;28;20623;-75
2021/10/27 02:02:21;;;;;;;1.30;0.60;;;15.40;99.90;;;;;;5032536;28;20611;-75
2021/10/27 02:04:47;;;;;;;1.10;0.60;;;15.50;99.90;;;;;;5048039;28;20208;-75
2021/10/27 02:07:12;;;;;;;1.07;0.50;;;15.50;99.90;;;;;;5030990;28;20197;-75
2021/10/27 02:09:38;;;;;;;1.13;0.70;;;15.60;99.90;;;;;;5032631;28;20177;-75
2021/10/27 02:12:06;;;;;;;1.30;0.53;;;15.60;99.90;;;;;;5031336;28;20274;-75
2021/10/27 02:14:34;;;;;;;1.50;0.60;;;15.50;99.90;;;;;;5032630;28;20205;-75
2021/10/27 02:16:59;;;;;;;1.10;0.57;;;15.50;99.90;;;;;;5031971;28;20886;-76
2021/10/27 02:19:25;;;;;;;1.30;0.50;;;15.50;99.90;;;;;;5032514;28;20583;-76
2021/10/27 02:21:52;;;;;;;1.20;0.50;;;15.50;99.90;;;;;;5032219;28;20322;-76
2021/10/27 02:24:18;;;;;;;1.13;0.60;;;15.50;99.90;;;;;;5031217;28;21035;-76
2021/10/27 02:26:44;;;;;;;1.10;0.53;;;15.50;99.90;;;;;;5047196;28;20169;-76
2021/10/27 02:29:10;;;;;;;1.00;0.47;;;15.50;99.90;;;;;;5032439;28;20579;-76
2021/10/27 02:31:35;;;;;;;2.03;0.70;;;15.50;99.90;;;;;;5031154;28;20177;-76
2021/10/27 02:34:01;;;;;;;1.70;0.90;;;15.50;99.90;;;;;;5030600;28;21199;-76
2021/10/27 02:36:27;;;;;;;1.40;0.60;;;15.50;99.90;;;;;;5032067;28;20571;-76
2021/10/27 02:38:53;;;;;;;1.80;0.63;;;15.50;99.90;;;;;;5032119;28;20257;-76
2021/10/27 02:41:19;;;;;;;1.20;0.60;;;15.50;99.90;;;;;;5047395;28;20568;-75
2021/10/27 02:43:45;;;;;;;1.00;0.50;;;15.60;99.90;;;;;;5031623;28;20673;-76
2021/10/27 02:46:11;;;;;;;1.40;0.60;;;15.60;99.90;;;;;;5031836;28;20224;-76
2021/10/27 02:48:38;;;;;;;1.57;0.60;;;15.60;99.90;;;;;;5031766;28;20571;-76
2021/10/27 02:51:04;;;;;;;1.43;0.60;;;15.60;99.90;;;;;;5032002;28;20571;-76
2021/10/27 02:53:30;;;;;;;1.23;0.50;;;15.60;99.90;;;;;;5031549;28;20627;-75
2021/10/27 02:55:56;;;;;;;1.03;0.50;;;15.60;99.90;;;;;;5031669;28;20672;-76
2021/10/27 02:58:22;;;;;;;1.10;0.60;;;15.60;99.90;;;;;;5047085;28;20573;-75
2021/10/27 03:00:48;;;;;;;1.93;0.60;;;15.60;99.90;;;;;;5031578;28;20699;-77
2021/10/27 03:03:14;;;;;;;1.20;0.60;;;15.60;99.90;;;;;;5031191;28;20209;-76
2021/10/27 03:05:39;;;;;;;1.73;0.60;;;15.70;99.90;;;;;;5031552;28;20173;-76
2021/10/27 03:08:05;;;;;;;1.27;0.50;;;15.70;99.90;;;;;;5030172;28;20181;-76
2021/10/27 03:10:31;;;;;;;1.67;0.60;;;15.70;99.90;;;;;;5031522;28;20170;-76
2021/10/27 03:12:57;;;;;;;1.83;0.60;;;15.70;99.90;;;;;;5026194;28;20207;-76
2021/10/27 03:15:22;;;;;;;2.30;0.63;;;15.60;99.90;;;;;;5027939;28;20173;-76
2021/10/27 03:17:49;;;;;;;1.40;0.70;;;15.60;99.90;;;;;;5047009;28;20564;-76
2021/10/27 03:20:14;;;;;;;1.30;0.60;;;15.60;99.90;;;;;;5031477;28;20536;-76
2021/10/27 03:22:40;;;;;;;1.40;0.60;;;15.50;99.90;;;;;;5046705;28;20600;-76
2021/10/27 03:25:06;;;;;;;1.20;0.60;;;15.50;99.90;;;;;;5031178;28;20189;-75
2021/10/27 03:27:32;;;;;;;1.50;0.70;;;15.40;99.90;;;;;;5031522;28;20654;-76
2021/10/27 03:29:58;;;;;;;1.30;0.60;;;15.40;99.90;;;;;;5031174;28;20572;-76
2021/10/27 03:32:24;;;;;;;1.60;0.73;;;15.30;99.90;;;;;;5031380;28;20598;-76
2021/10/27 03:34:50;;;;;;;1.17;0.60;;;15.30;99.90;;;;;;5031197;28;20572;-76
2021/10/27 03:37:16;;;;;;;1.53;0.60;;;15.20;99.90;;;;;;5031176;28;20557;-76
2021/10/27 03:39:42;;;;;;;1.23;0.70;;;15.10;99.90;;;;;;5030079;28;21014;-76
2021/10/27 03:42:07;;;;;;;1.93;0.70;;;15.10;99.90;;;;;;5031602;28;20273;-77
2021/10/27 03:44:33;;;;;;;1.40;0.70;;;15.00;99.90;;;;;;5031116;28;20189;-76
2021/10/27 03:46:59;;;;;;;1.50;0.73;;;15.00;99.90;;;;;;5031018;28;20170;-76
2021/10/27 03:49:25;;;;;;;1.20;0.70;;;14.90;99.90;;;;;;5046573;28;20647;-76
2021/10/27 03:51:50;;;;;;;2.03;0.70;;;14.90;99.90;;;;;;5029967;28;20516;-76
2021/10/27 03:54:19;;;;;;;1.30;0.70;;;14.90;99.90;;;;;;5046219;28;20197;-76
2021/10/27 03:56:45;;;;;;;1.92;0.70;;;14.80;99.90;;;;;;5030924;28;21124;-77
2021/10/27 03:59:12;;;;;;;2.27;0.70;;;14.80;99.90;;;;;;5029927;28;20174;-76
2021/10/27 04:01:38;;;;;;;1.63;0.75;;;14.70;99.90;;;;;;5029711;28;20192;-76
2021/10/27 04:04:04;;;;;;;1.40;0.70;;;14.70;99.90;;;;;;5031126;28;20639;-76
2021/10/27 04:06:30;;;;;;;1.40;0.80;;;14.60;99.90;;;;;;5030622;28;20660;-76
2021/10/27 04:08:56;;;;;;;1.33;0.80;;;14.60;99.90;;;;;;5031109;28;20565;-76
2021/10/27 04:11:21;;;;;;;2.00;0.90;;;14.50;99.90;;;;;;5029710;28;20654;-76
2021/10/27 04:13:47;;;;;;;1.23;0.80;;;14.50;99.90;;;;;;5032652;28;20201;-76
2021/10/27 04:16:13;;;;;;;1.57;0.93;;;14.50;99.90;;;;;;5041052;28;20687;-76
2021/10/27 04:18:39;;;;;;;1.40;0.90;;;14.40;99.90;;;;;;5030562;28;20182;-76
2021/10/27 04:21:06;;;;;;;2.67;1.65;;;14.40;99.90;;;;;;5028953;28;20568;-76
2021/10/27 04:23:32;;;;;;;1.60;0.90;;;14.40;99.90;;;;;;5034481;28;20200;-76
2021/10/27 04:25:57;;;;;;;1.50;0.85;;;14.30;99.90;;;;;;5034187;28;20181;-76
2021/10/27 04:28:23;;;;;;;1.47;0.80;;;14.30;99.90;;;;;;5034571;28;20708;-76
2021/10/27 04:30:49;;;;;;;1.77;0.90;;;14.30;99.90;;;;;;5033337;28;21143;-76
2021/10/27 04:33:21;;;;;;;2.00;0.90;;;14.30;99.90;;;;;;5034373;28;20670;-76
2021/10/27 04:35:49;;;;;;;2.25;1.10;;;14.20;99.90;;;;;;5032848;28;20177;-76
2021/10/27 04:38:16;;;;;;;2.60;1.00;;;14.20;99.90;;;;;;5034604;28;20184;-75
2021/10/27 04:40:43;;;;;;;1.80;0.80;;;14.10;99.90;;;;;;5034329;28;20518;-76
2021/10/27 04:43:10;;;;;;;2.20;1.10;;;14.10;99.90;;;;;;5034184;28;20620;-76
2021/10/27 04:45:37;;;;;;;2.10;1.17;;;14.10;99.90;;;;;;5034279;28;20213;-76
2021/10/27 04:48:03;;;;;;;2.45;1.08;;;14.10;99.90;;;;;;5034187;28;20170;-76
2021/10/27 04:50:29;;;;;;;1.93;1.10;;;14.10;99.90;;;;;;5034283;28;20579;-76
2021/10/27 04:52:55;;;;;;;2.17;1.00;;;14.10;99.90;;;;;;5033809;28;20623;-76
2021/10/27 04:55:20;;;;;;;5.13;1.60;;;14.10;99.90;;;;;;5033967;28;21091;-76
2021/10/27 04:57:47;;;;;;;3.10;1.87;;;14.10;99.90;;;;;;5033618;28;20569;-76
2021/10/27 05:00:13;;;;;;;2.93;1.20;;;14.10;99.90;;;;;;5028684;28;20198;-76
2021/10/27 05:02:39;;;;;;;2.40;1.27;;;14.20;99.90;;;;;;5025128;28;20609;-75
2021/10/27 05:05:06;;;;;;;2.53;1.20;;;14.20;99.90;;;;;;5033749;28;20196;-76
2021/10/27 05:07:33;;;;;;;3.10;1.40;;;14.20;99.90;;;;;;5033768;28;20170;-77
2021/10/27 05:09:59;;;;;;;1.80;1.50;;;14.20;99.90;;;;;;5033944;28;20181;-76
2021/10/27 05:12:25;;;;;;;2.20;1.50;;;14.20;99.90;;;;;;5033486;28;20181;-75
2021/10/27 05:14:51;;;;;;;3.50;1.50;;;14.20;99.90;;;;;;5032555;28;20204;-76
2021/10/27 05:17:17;;;;;;;4.68;1.70;;;14.20;99.90;;;;;;5033353;28;20587;-77
2021/10/27 05:19:45;;;;;;;3.23;1.60;;;14.20;99.90;;;;;;5034659;28;20626;-77
2021/10/27 05:22:12;;;;;;;2.60;1.75;;;14.20;99.90;;;;;;5033450;28;20598;-77
2021/10/27 05:24:39;;;;;;;2.47;1.45;;;14.20;99.90;;;;;;5048386;28;20190;-77
2021/10/27 05:27:05;;;;;;;2.20;1.33;;;14.20;99.90;;;;;;5032098;28;20743;-75
2021/10/27 05:29:32;;;;;;;2.65;2.10;;;14.10;99.90;;;;;;5033462;28;20663;-76
2021/10/27 05:31:58;;;;;;;1.95;1.30;;;14.10;99.90;;;;;;5032189;28;20289;-75
2021/10/27 05:34:24;;;;;;;6.30;1.80;;;14.10;99.90;;;;;;5033234;28;20288;-76
2021/10/27 05:36:50;;;;;;;3.27;1.87;;;14.00;99.90;;;;;;5033228;28;20583;-76
2021/10/27 05:39:17;;;;;;;3.88;1.52;;;14.00;99.90;;;;;;5032526;28;20568;-76
2021/10/27 05:41:47;;;;;;;3.58;1.75;;;14.00;99.90;;;;;;5032777;28;20166;-76
2021/10/27 05:44:13;;;;;;;2.50;1.60;;;14.10;99.90;;;;;;5032306;28;20182;-75
2021/10/27 05:46:41;;;;;;;2.23;1.73;;;14.10;99.90;;;;;;5049757;28;20181;-75
2021/10/27 05:49:16;;;;;;;2.88;1.60;;;14.10;99.90;;;;;;5054019;28;20158;-78
2021/10/27 05:51:46;;;;;;;2.92;1.50;;;14.10;99.90;;;;;;5038694;28;20173;-77
2021/10/27 05:56:57;;;;;;;2.35;1.40;;;14.20;99.90;;;;;;5035015;28;20599;-76
2021/10/27 05:59:22;;;;;;;2.90;1.47;;;14.20;99.90;;;;;;5033230;28;20219;-76
2021/10/27 06:01:48;;;;;;;2.90;1.93;;;14.30;99.90;;;;;;5033233;28;20572;-76
2021/10/27 06:04:17;;;;;;;2.90;2.00;;;14.30;99.90;;;;;;5033136;28;20178;-75
2021/10/27 06:06:45;;;;;;;2.22;1.90;;;14.30;99.90;;;;;;5033114;28;20166;-75
2021/10/27 06:09:11;;;;;;;3.20;1.77;;;14.30;99.90;;;;;;5037495;28;20277;-76
2021/10/27 06:11:39;;;;;;;2.55;1.80;;;14.30;99.90;;;;;;5032873;28;20268;-76
2021/10/27 06:14:05;;;;;;;3.05;1.75;;;14.30;99.90;;;;;;5047832;28;20205;-76
2021/10/27 06:16:31;;;;;;;2.87;1.80;;;14.20;99.90;;;;;;5032638;28;20177;-76
2021/10/27 06:18:57;;;;;;;2.70;1.63;;;14.30;99.90;;;;;;5032719;28;20948;-76
2021/10/27 06:21:24;;;;;;;4.53;2.17;;;14.30;99.90;;;;;;5032502;28;20556;-77
2021/10/27 06:23:50;;;;;;;3.25;2.00;;;14.30;99.90;;;;;;5031312;28;20197;-76
2021/10/27 06:26:20;;;;;;;2.33;1.73;;;14.20;99.90;;;;;;5032218;28;20660;-77
2021/10/27 06:28:58;;;;;;;2.95;2.70;;;14.20;99.90;;;;;;5031110;28;20587;-76
2021/10/27 06:47:30;;;;;;;4.20;2.20;;;14.40;99.90;;;;;;5011397;28;20181;-74
2021/10/27 06:49:56;;;;;;;3.15;2.67;;;14.40;99.90;;;;;;5012538;28;20569;-75
2021/10/27 06:52:22;;;;;;;2.50;2.10;;;14.40;99.90;;;;;;5027556;28;20191;-74
2021/10/27 06:54:52;;;;;;;3.07;2.33;;;14.40;99.90;;;;;;5027567;28;20609;-73
2021/10/27 06:57:22;;;;;;;4.32;2.10;;;14.40;99.90;;;;;;5010815;28;20652;-73
2021/10/27 06:59:49;;;;;;;3.22;2.15;;;14.50;99.90;;;;;;5010957;28;20174;-74
2021/10/27 07:05:11;;;;;;;4.03;2.40;;;14.60;99.90;;;;;;5011029;28;20566;-73
2021/10/27 07:16:01;;;;;;;3.67;2.17;;;14.70;99.90;;;;;;5011967;28;20549;-73
2021/10/27 07:18:27;;;;;;;2.83;2.20;;;14.70;99.90;;;;;;5012130;28;20570;-74
2021/10/27 07:20:53;;;;;;;3.77;2.80;;;14.70;99.90;;;;;;5026965;28;20562;-73
2021/10/27 07:23:19;;;;;;;3.03;2.13;;;14.80;99.90;;;;;;5012022;28;20608;-74
2021/10/27 07:25:46;;;;;;;4.57;2.07;;;14.90;99.90;;;;;;5011966;28;20561;-74
2021/10/27 07:28:14;;;;;;;2.67;2.10;;;14.90;99.90;;;;;;5010585;28;20228;-74
2021/10/27 07:30:42;;;;;;;2.80;1.83;;;15.00;99.90;;;;;;5012359;28;20604;-74
2021/10/27 07:33:07;;;;;;;2.40;1.75;;;15.10;99.90;;;;;;5026930;28;20632;-73
2021/10/27 07:35:39;;;;;;;3.73;1.77;;;15.20;99.90;;;;;;5011982;28;20205;-73
2021/10/27 07:40:51;;;;;;;4.07;1.50;;;15.50;99.90;;;;;;5018864;28;20642;-77
2021/10/27 07:43:21;;;;;;;2.37;1.63;;;15.70;99.90;;;;;;5022453;28;20624;-77
2021/10/27 07:45:49;;;;;;;3.27;1.53;;;15.90;99.90;;;;;;5046814;28;20812;-76
2021/10/27 07:48:16;;;;;;;2.30;1.60;;;16.00;99.90;;;;;;5031978;28;20594;-77
2021/10/27 07:50:42;;;;;;;4.63;2.27;;;16.20;99.90;;;;;;5035056;28;21151;-77
2021/10/27 07:53:10;;;;;;;2.20;1.40;;;16.30;99.90;;;;;;5041853;28;20639;-77
2021/10/27 07:55:39;;;;;;;2.23;1.43;;;16.40;99.90;;;;;;5035068;28;20671;-78
2021/10/27 07:58:05;;;;;;;3.80;1.97;;;16.50;99.90;;;;;;5034926;28;20924;-76
2021/10/27 08:00:30;;;;;;;3.20;1.40;;;16.50;99.90;;;;;;5035225;28;20552;-76
2021/10/27 08:03:01;;;;;;;2.47;1.60;;;16.60;99.90;;;;;;5050324;28;20288;-77
2021/10/27 08:05:40;;;;;;;2.17;1.23;;;16.70;99.90;;;;;;5033579;28;20573;-77
2021/10/27 08:08:07;;;;;;;2.57;1.80;;;16.80;99.90;;;;;;5034910;28;20636;-76
2021/10/27 08:10:34;;;;;;;2.80;1.43;;;16.90;99.90;;;;;;5035161;28;20706;-77
2021/10/27 08:13:01;;;;;;;2.40;1.70;;;16.90;99.90;;;;;;5034579;28;20620;-77
2021/10/27 08:15:28;;;;;;;4.03;2.17;;;17.00;99.90;;;;;;5034748;28;20587;-77
2021/10/27 08:17:55;;;;;;;3.77;1.40;;;16.90;99.90;;;;;;5034640;28;21202;-77
2021/10/27 08:20:24;;;;;;;2.23;1.60;;;16.90;99.90;;;;;;5033589;28;20588;-77
2021/10/27 08:22:59;;;;;;;2.67;2.07;;;16.90;99.90;;;;;;5033278;28;20957;-77
2021/10/27 08:25:37;;;;;;;2.83;2.10;;;17.00;99.90;;;;;;5034952;28;20583;-76
2021/10/27 08:28:08;;;;;;;3.13;1.53;;;17.00;99.90;;;;;;5034762;28;21020;-76
2021/10/27 08:33:19;;;;;;;2.27;1.40;;;17.00;99.90;;;;;;5034298;28;20650;-78
2021/10/27 08:35:44;;;;;;;2.47;1.47;;;17.00;99.90;;;;;;5034505;28;20575;-77
2021/10/27 08:38:10;;;;;;;3.30;1.87;;;17.00;99.90;;;;;;5034749;28;20575;-78
2021/10/27 08:40:36;;;;;;;2.17;1.40;;;17.10;99.90;;;;;;5034597;28;20161;-78
2021/10/27 08:43:02;;;;;;;2.20;1.30;;;17.10;99.90;;;;;;5034478;28;20193;-77
2021/10/27 08:45:28;;;;;;;2.60;1.17;;;17.10;99.90;;;;;;5032943;28;20248;-78
2021/10/27 08:47:55;;;;;;;3.63;1.33;;;17.10;99.90;;;;;;5034751;28;20680;-78
2021/10/27 08:50:23;;;;;;;2.87;1.40;;;17.10;99.90;;;;;;5034316;28;20659;-78
2021/10/27 08:52:49;;;;;;;5.73;1.50;;;17.20;99.90;;;;;;5049587;28;20961;-78
2021/10/27 08:55:16;;;;;;;3.30;1.30;;;17.20;99.90;;;;;;5034038;28;20594;-77
2021/10/27 08:57:47;;;;;;;2.10;1.10;;;17.30;99.90;;;;;;5033182;28;20652;-78
2021/10/27 09:00:30;;;;;;;2.40;1.40;;;17.40;99.90;;;;;;5033102;28;20572;-78
2021/10/27 09:14:30;;;;;;;2.03;1.13;;;17.70;99.90;;;;;;5033960;28;20626;-78
2021/10/27 10:06:40;;;;;;;1.50;0.90;;;18.80;99.90;;;;;;5032641;28;20557;-78
2021/10/27 10:09:10;;;;;;;2.17;0.93;;;18.80;99.90;;;;;;5034874;28;20567;-78
2021/10/27 10:11:36;;;;;;;1.20;0.60;;;18.80;99.90;;;;;;5031281;28;20592;-78
2021/10/27 10:14:05;;;;;;;2.33;0.90;;;18.90;99.90;;;;;;5032922;28;20620;-78
2021/10/27 10:16:38;;;;;;;1.50;0.80;;;18.90;99.90;;;;;;5033943;28;20644;-78
2021/10/27 10:19:07;;;;;;;3.00;1.37;;;18.90;99.90;;;;;;5033267;28;20650;-78
2021/10/27 10:21:40;;;;;;;1.90;0.80;;;18.90;99.90;;;;;;5032567;28;20593;-77
2021/10/27 10:24:36;;;;;;;2.60;0.90;;;18.90;99.90;;;;;;5031237;28;20575;-78
2021/10/27 10:27:11;;;;;;;1.53;0.70;;;18.90;99.90;;;;;;5031650;28;20623;-78
2021/10/27 10:32:22;;;;;;;2.37;0.80;;;18.90;99.90;;;;;;5032280;28;20627;-78
2021/10/27 10:34:53;;;;;;;2.03;0.80;;;18.80;99.90;;;;;;5030925;28;20209;-78
2021/10/27 10:37:40;;;;;;;1.40;0.80;;;18.80;99.90;;;;;;5031912;28;20600;-77
2021/10/27 10:41:46;;;;;;;1.70;0.80;;;18.80;99.90;;;;;;5031301;28;20563;-78
2021/10/27 10:43:56;;;;;;;2.20;1.40;;;18.90;99.90;;;;;;4964579;28;20625;-78
2021/10/27 11:38:17;;;;;;;2.23;0.80;;;20.80;99.90;;;;;;5009606;28;20590;-77
2021/10/27 11:40:46;;;;;;;1.70;0.90;;;20.90;99.90;;;;;;5026075;28;20600;-78
2021/10/27 11:45:51;;;;;;;2.60;0.90;;;21.00;99.90;;;;;;5031142;28;20600;-79
2021/10/27 11:48:29;;;;;;;2.70;1.00;;;20.90;99.90;;;;;;5013738;28;21131;-78
2021/10/27 11:50:55;;;;;;;3.23;1.20;;;20.80;99.90;;;;;;5029817;28;20578;-78
2021/10/27 11:53:31;;;;;;;2.63;1.20;;;20.70;99.90;;;;;;5046444;28;20643;-78
2021/10/27 11:56:08;;;;;;;1.93;0.97;;;20.50;99.90;;;;;;5030928;28;20169;-78
2021/10/27 11:58:40;;;;;;;2.87;1.40;;;20.40;99.90;;;;;;5031421;28;21131;-78
2021/10/27 12:01:07;;;;;;;2.27;1.10;;;20.40;99.90;;;;;;5029791;28;20595;-78
2021/10/27 12:03:41;;;;;;;3.40;0.90;;;20.30;99.90;;;;;;5029839;28;20593;-77
2021/10/27 12:06:21;;;;;;;2.70;1.17;;;20.10;99.90;;;;;;5030607;28;20582;-77
2021/10/27 12:19:25;;;;;;;7.00;1.17;;;19.90;99.90;;;;;;5031108;28;20567;-79
2021/10/27 12:21:59;;;;;;;1.83;1.03;;;19.90;99.90;;;;;;5029484;28;20572;-79
2021/10/27 12:24:28;;;;;;;2.07;1.47;;;19.90;99.90;;;;;;5030964;28;21085;-79
2021/10/27 12:27:07;;;;;;;2.10;0.97;;;19.90;99.90;;;;;;5030517;28;20568;-79
2021/10/27 12:29:38;;;;;;;2.37;1.10;;;19.80;99.90;;;;;;5013448;28;21143;-77
2021/10/27 12:32:07;;;;;;;2.37;1.00;;;19.90;99.90;;;;;;5030690;28;20610;-78
2021/10/27 12:34:43;;;;;;;1.97;0.87;;;19.90;99.90;;;;;;5032921;28;21099;-77
2021/10/27 12:37:29;;;;;;;1.60;0.87;;;19.90;99.90;;;;;;5033916;28;20568;-77
2021/10/27 12:40:23;;;;;;;3.80;1.00;;;19.80;99.90;;;;;;5033337;28;20572;-76
2021/10/27 12:45:37;;;;;;;2.97;1.10;;;19.70;99.90;;;;;;5032762;28;21226;-81
2021/10/27 12:48:06;;;;;;;2.30;1.10;;;19.70;99.90;;;;;;5016814;28;20624;-81
2021/10/27 12:50:33;;;;;;;2.23;0.70;;;19.70;99.90;;;;;;5017460;28;20959;-80
2021/10/27 12:53:02;;;;;;;2.43;0.90;;;19.80;99.90;;;;;;5036331;28;20575;-80
2021/10/27 12:55:38;;;;;;;1.60;0.87;;;19.80;99.90;;;;;;5053991;28;20591;-80
2021/10/27 12:58:15;;;;;;;2.87;0.83;;;19.90;99.90;;;;;;5054579;28;20582;-80
2021/10/27 13:00:51;;;;;;;3.43;0.90;;;20.00;99.90;;;;;;5037954;28;20915;-80
2021/10/27 13:17:33;;;;;;;1.60;0.97;;;20.50;99.90;;;;;;5055313;28;21102;-80
2021/10/27 13:29:32;;;;;;;2.93;0.70;;;20.70;99.90;;;;;;5037980;28;20978;-81
2021/10/27 13:30:47;;;;;;;1.60;0.60;;;20.80;99.90;;;;;;5057042;28;21007;-81
2021/10/27 13:33:15;;;;;;;2.47;0.80;;;20.80;99.90;;;;;;5056269;28;20642;-81
2021/10/27 13:35:41;;;;;;;2.07;0.80;;;20.80;99.90;;;;;;5038948;28;20912;-81
2021/10/27 13:38:09;;;;;;;2.03;0.80;;;20.80;99.90;;;;;;5057463;28;20642;-80
2021/10/27 13:40:39;;;;;;;2.73;0.73;;;20.80;99.90;;;;;;5056489;28;20574;-80
2021/10/27 13:43:17;;;;;;;1.93;0.77;;;20.80;99.90;;;;;;5057398;28;20937;-80
2021/10/27 14:06:53;;;;;;;1.40;0.70;;;20.60;99.90;;;;;;5054222;28;20571;-80
2021/10/27 15:24:53;;;;;;;1.60;0.60;;;20.20;99.90;;;;;;5052117;28;20609;-80
2021/10/27 15:30:24;;;;;;;2.00;0.80;;;20.20;99.90;;;;;;5051355;28;20579;-80
2021/10/27 15:43:59;;;;;;;3.27;1.23;;;19.60;99.90;;;;;;5034426;28;20698;-80
2021/10/27 15:51:52;;;;;;;2.53;1.23;;;19.20;99.90;;;;;;5052024;28;20575;-82
2021/10/27 15:54:19;;;;;;;1.97;1.10;;;19.10;99.90;;;;;;5050361;28;20637;-81
2021/10/27 15:56:45;;;;;;;2.17;1.47;;;18.90;99.90;;;;;;5052440;28;20562;-81
2021/10/27 15:59:11;;;;;;;3.00;0.90;;;18.80;99.90;;;;;;5050509;28;20607;-82
2021/10/27 16:01:37;;;;;;;4.07;1.40;;;18.70;99.90;;;;;;5052396;28;20571;-79
2021/10/27 16:04:04;;;;;;;2.43;1.10;;;18.60;99.90;;;;;;5051446;28;21130;-82
2021/10/27 16:06:34;;;;;;;2.00;1.00;;;18.50;99.90;;;;;;5051640;28;20953;-82
2021/10/27 16:09:02;;;;;;;3.83;1.07;;;18.40;99.90;;;;;;5035571;28;20591;-82
2021/10/27 16:11:27;;;;;;;2.87;1.10;;;18.30;99.90;;;;;;5038366;28;21107;-81
2021/10/27 16:13:53;;;;;;;3.17;1.30;;;18.20;99.90;;;;;;5059891;28;20633;-80
2021/10/27 16:16:19;;;;;;;4.47;1.13;;;18.10;99.90;;;;;;5037575;28;20176;-81
2021/10/27 16:18:46;;;;;;;3.37;1.17;;;18.10;99.90;;;;;;5037875;28;20207;-80
2021/10/27 16:21:12;;;;;;;3.70;1.30;;;18.00;99.90;;;;;;5056211;28;20572;-80
2021/10/27 16:23:38;;;;;;;2.37;1.40;;;17.90;99.90;;;;;;5055859;28;20634;-80
2021/10/27 16:26:04;;;;;;;1.60;1.00;;;17.80;99.90;;;;;;5038710;28;20613;-80
2021/10/27 16:28:31;;;;;;;3.07;1.20;;;17.80;99.90;;;;;;5056434;28;21043;-81
2021/10/27 16:30:57;;;;;;;2.77;1.43;;;17.70;99.90;;;;;;5042761;28;21153;-80
2021/10/27 16:33:22;;;;;;;2.93;1.33;;;17.60;99.90;;;;;;5055687;28;20641;-80
2021/10/27 16:35:53;;;;;;;3.90;1.20;;;17.50;99.90;;;;;;5055075;28;20575;-79
2021/10/27 16:38:20;;;;;;;4.20;1.30;;;17.40;99.90;;;;;;5055268;28;20579;-80
2021/10/27 16:40:48;;;;;;;2.43;1.13;;;17.30;99.90;;;;;;5054753;28;20574;-79
2021/10/27 16:43:15;;;;;;;4.10;1.63;;;17.30;99.90;;;;;;5055192;28;20599;-80
2021/10/27 16:45:41;;;;;;;2.33;1.57;;;17.20;99.90;;;;;;5036945;28;20575;-79
2021/10/27 16:48:08;;;;;;;2.70;1.30;;;17.10;99.90;;;;;;5055541;28;21216;-79
2021/10/27 16:50:34;;;;;;;3.10;1.40;;;17.00;99.90;;;;;;5060270;28;20559;-80
2021/10/27 16:53:00;;;;;;;3.30;2.47;;;16.90;99.90;;;;;;5037389;28;20571;-78
2021/10/27 16:55:27;;;;;;;2.50;0.97;;;16.90;99.90;;;;;;5054156;28;20943;-79
2021/10/27 16:57:55;;;;;;;2.10;1.33;;;16.80;99.90;;;;;;5054801;28;20666;-79
2021/10/27 17:00:23;;;;;;;4.53;3.10;;;16.70;99.90;;;;;;5054340;28;20622;-79
2021/10/27 17:02:50;;;;;;;6.73;3.47;;;16.70;99.90;;;;;;5020196;28;20674;-80
2021/10/27 17:05:16;;;;;;;3.17;2.80;;;16.60;99.90;;;;;;5054571;28;20583;-79
2021/10/27 17:07:42;;;;;;;3.70;2.10;;;16.50;99.90;;;;;;5054560;28;20921;-79
2021/10/27 17:10:09;;;;;;;3.23;1.77;;;16.40;99.90;;;;;;5054342;28;20625;-79
2021/10/27 17:12:36;;;;;;;3.20;1.63;;;16.40;99.90;;;;;;5036613;28;20936;-79
2021/10/27 17:15:04;;;;;;;2.50;1.67;;;16.30;99.90;;;;;;5019887;28;20639;-80
2021/10/27 17:17:30;;;;;;;4.40;2.50;;;16.30;99.90;;;;;;5055405;28;21133;-78
2021/10/27 17:19:56;;;;;;;5.60;1.70;;;16.30;99.90;;;;;;5055248;28;20682;-79
2021/10/27 17:22:25;;;;;;;4.80;2.00;;;16.20;99.90;;;;;;5054141;28;20165;-79
2021/10/27 17:24:51;;;;;;;3.93;2.40;;;16.20;99.90;;;;;;5056597;28;20227;-80
2021/10/27 17:27:17;;;;;;;4.40;1.93;;;16.10;99.90;;;;;;5040291;28;20579;-78
2021/10/27 17:29:43;;;;;;;3.50;2.30;;;16.10;99.90;;;;;;5037569;28;20205;-79
2021/10/27 17:32:09;;;;;;;3.20;1.83;;;16.00;99.90;;;;;;5053933;28;20618;-79
2021/10/27 17:34:34;;;;;;;5.20;1.90;;;16.00;99.90;;;;;;5053873;28;20270;-79
2021/10/27 17:37:01;;;;;;;3.17;1.90;;;15.90;99.90;;;;;;5053867;28;20165;-79
2021/10/27 17:39:30;;;;;;;4.90;2.10;;;15.90;99.90;;;;;;5052936;28;20272;-79
2021/10/27 17:41:58;;;;;;;4.50;2.10;;;15.80;99.90;;;;;;5047336;28;20571;-79
2021/10/27 17:44:25;;;;;;;3.80;2.37;;;15.80;99.90;;;;;;5035334;28;20650;-79
2021/10/27 17:46:57;;;;;;;4.07;1.80;;;15.80;99.90;;;;;;5052960;28;21138;-80
2021/10/27 17:52:08;;;;;;;4.13;2.33;;;15.70;99.90;;;;;;5052987;28;20591;-81
2021/10/27 18:00:05;;;;;;;4.60;2.30;;;15.50;99.90;;;;;;5047055;28;20572;-80
2021/10/27 18:02:34;;;;;;;3.10;2.43;;;15.50;99.90;;;;;;5052392;28;20619;-80
2021/10/27 18:05:02;;;;;;;2.73;2.33;;;15.40;99.90;;;;;;5056722;28;20685;-80